createdAt,value
2023-01-23T00:01:34.208Z,100816.41
2023-01-23T00:04:02.579Z,100806.69
2023-01-23T00:06:30.602Z,100802.75
2023-01-23T00:08:58.200Z,100806.37
2023-01-23T00:11:28.425Z,100797.28
2023-01-23T00:13:56.986Z,100797.47
2023-01-23T00:16:26.433Z,100791.72
2023-01-23T00:18:54.163Z,100790.31
2023-01-23T00:21:24.156Z,100790.53
2023-01-23T00:23:53.734Z,100794.34
2023-01-23T00:26:24.143Z,100801.19
2023-01-23T00:28:52.235Z,100792.03
2023-01-23T00:31:25.511Z,100798.44
2023-01-23T00:34:13.075Z,100792.75
2023-01-23T00:36:43.525Z,100789.63
2023-01-23T00:39:19.728Z,100786.00
2023-01-23T00:41:48.047Z,100794.28
2023-01-23T00:44:16.547Z,100788.75
2023-01-23T00:46:44.123Z,100774.00
2023-01-23T00:49:11.596Z,100785.69
2023-01-23T00:51:39.284Z,100789.41
2023-01-23T00:54:06.733Z,100786.16
2023-01-23T00:56:34.217Z,100791.56
2023-01-23T00:59:01.906Z,100796.66
2023-01-23T01:01:31.921Z,100801.53
2023-01-23T01:03:59.985Z,100792.19
2023-01-23T01:06:29.679Z,100785.38
2023-01-23T01:08:57.987Z,100793.84
2023-01-23T01:11:25.718Z,100785.69
2023-01-23T01:13:53.752Z,100787.59
2023-01-23T01:16:21.482Z,100780.41
2023-01-23T01:18:48.910Z,100770.28
2023-01-23T01:21:16.783Z,100771.84
2023-01-23T01:23:44.378Z,100780.50
2023-01-23T01:26:11.938Z,100773.19
2023-01-23T01:28:40.687Z,100768.22
2023-01-23T01:31:13.483Z,100765.13
2023-01-23T01:33:42.225Z,100756.75
2023-01-23T01:36:11.477Z,100758.41
2023-01-23T01:38:39.292Z,100764.38
2023-01-23T01:41:07.597Z,100768.91
2023-01-23T01:43:36.110Z,100770.94
2023-01-23T01:46:06.231Z,100764.97
2023-01-23T01:49:15.297Z,100765.31
2023-01-23T01:51:45.777Z,100772.78
2023-01-23T01:54:33.411Z,100762.09
2023-01-23T01:57:05.843Z,100774.47
2023-01-23T01:59:38.803Z,100765.81
2023-01-23T02:02:12.637Z,100762.72
2023-01-23T02:04:47.799Z,100761.03
2023-01-23T02:07:22.158Z,100751.44
2023-01-23T02:09:50.187Z,100750.59
2023-01-23T02:12:17.576Z,100755.84
2023-01-23T02:14:45.367Z,100756.03
2023-01-23T02:17:12.742Z,100754.59
2023-01-23T02:19:45.967Z,100756.81
2023-01-23T02:22:29.318Z,100760.81
2023-01-23T02:25:02.857Z,100761.03
2023-01-23T02:27:30.751Z,100754.84
2023-01-23T02:29:58.529Z,100757.38
2023-01-23T02:32:26.908Z,100754.38
2023-01-23T02:34:57.459Z,100753.56
2023-01-23T02:37:28.020Z,100761.81
2023-01-23T02:39:58.771Z,100751.16
2023-01-23T02:42:26.382Z,100764.53
2023-01-23T02:44:55.840Z,100754.63
2023-01-23T02:47:23.683Z,100747.38
2023-01-23T02:49:51.045Z,100743.59
2023-01-23T02:52:18.446Z,100740.47
2023-01-23T02:54:47.488Z,100734.53
2023-01-23T02:57:15.480Z,100734.56
2023-01-23T03:00:01.295Z,100728.72
2023-01-23T03:02:29.532Z,100719.31
2023-01-23T03:04:57.032Z,100726.31
2023-01-23T03:07:24.396Z,100721.22
2023-01-23T03:09:52.059Z,100715.81
2023-01-23T03:12:19.449Z,100722.13
2023-01-23T03:14:48.500Z,100722.16
2023-01-23T03:17:16.176Z,100717.03
2023-01-23T03:19:43.612Z,100721.78
2023-01-23T03:22:11.049Z,100719.78
2023-01-23T03:24:39.650Z,100714.91
2023-01-23T03:27:07.225Z,100717.25
2023-01-23T03:29:53.741Z,100718.09
2023-01-23T03:32:22.534Z,100713.28
2023-01-23T03:34:49.970Z,100703.97
2023-01-23T03:37:19.707Z,100700.25
2023-01-23T03:40:06.248Z,100703.78
2023-01-23T03:42:34.731Z,100698.06
2023-01-23T03:45:03.497Z,100698.59
2023-01-23T03:47:31.228Z,100696.38
2023-01-23T03:49:58.645Z,100699.91
2023-01-23T03:52:26.356Z,100696.59
2023-01-23T03:54:53.924Z,100690.72
2023-01-23T03:57:21.328Z,100694.87
2023-01-23T03:59:51.052Z,100700.09
2023-01-23T04:02:18.997Z,100708.31
2023-01-23T04:04:46.792Z,100702.19
2023-01-23T04:07:14.228Z,100702.63
2023-01-23T04:09:42.034Z,100708.63
2023-01-23T04:12:09.794Z,100710.06
2023-01-23T04:14:37.887Z,100706.97
2023-01-23T04:17:06.490Z,100701.56
2023-01-23T04:19:34.545Z,100708.28
2023-01-23T04:22:02.469Z,100701.63
2023-01-23T04:24:31.670Z,100701.53
2023-01-23T04:27:00.419Z,100697.81
2023-01-23T04:29:28.588Z,100712.84
2023-01-23T04:31:56.171Z,100714.78
2023-01-23T04:34:23.845Z,100707.50
2023-01-23T04:36:51.464Z,100712.09
2023-01-23T04:39:18.868Z,100712.22
2023-01-23T04:41:46.795Z,100711.53
2023-01-23T04:44:20.737Z,100708.06
2023-01-23T04:46:50.925Z,100706.62
2023-01-23T04:49:19.438Z,100703.34
2023-01-23T04:51:48.276Z,100704.50
2023-01-23T04:54:18.083Z,100709.19
2023-01-23T04:56:46.078Z,100709.66
2023-01-23T04:59:15.790Z,100705.41
2023-01-23T05:01:44.461Z,100703.12
2023-01-23T05:04:12.174Z,100713.94
2023-01-23T05:06:39.848Z,100713.94
2023-01-23T05:09:07.518Z,100712.47
2023-01-23T05:11:35.534Z,100722.31
2023-01-23T05:14:03.056Z,100726.94
2023-01-23T05:16:30.807Z,100723.72
2023-01-23T05:18:59.941Z,100717.56
2023-01-23T05:21:27.720Z,100718.44
2023-01-23T05:23:55.367Z,100716.75
2023-01-23T05:26:22.906Z,100725.53
2023-01-23T05:28:50.966Z,100722.47
2023-01-23T05:31:20.633Z,100725.66
2023-01-23T05:33:49.700Z,100727.75
2023-01-23T05:36:18.570Z,100727.72
2023-01-23T05:38:46.545Z,100726.94
2023-01-23T05:41:14.151Z,100734.09
2023-01-23T05:43:44.245Z,100725.56
2023-01-23T05:46:16.961Z,100718.28
2023-01-23T05:48:48.818Z,100723.00
2023-01-23T05:51:17.313Z,100733.19
2023-01-23T05:53:45.126Z,100726.34
2023-01-23T05:56:13.001Z,100736.59
2023-01-23T05:58:41.233Z,100728.00
2023-01-23T06:01:09.620Z,100737.69
2023-01-23T06:03:39.076Z,100745.13
2023-01-23T06:06:06.874Z,100742.75
2023-01-23T06:08:34.263Z,100748.38
2023-01-23T06:11:03.719Z,100744.50
2023-01-23T06:13:31.349Z,100746.59
2023-01-23T06:15:59.132Z,100752.69
2023-01-23T06:18:27.039Z,100750.75
2023-01-23T06:20:59.247Z,100757.06
2023-01-23T06:23:27.156Z,100763.25
2023-01-23T06:25:54.575Z,100767.53
2023-01-23T06:28:22.053Z,100767.00
2023-01-23T06:30:49.869Z,100765.28
2023-01-23T06:33:18.923Z,100779.91
2023-01-23T06:35:46.588Z,100778.69
2023-01-23T06:38:14.332Z,100784.59
2023-01-23T06:40:42.271Z,100783.72
2023-01-23T06:43:10.055Z,100787.91
2023-01-23T06:45:37.714Z,100794.66
2023-01-23T06:48:05.440Z,100801.34
2023-01-23T06:50:33.033Z,100801.56
2023-01-23T06:53:00.795Z,100799.13
2023-01-23T06:55:28.322Z,100799.09
2023-01-23T06:57:55.721Z,100790.28
2023-01-23T07:00:23.556Z,100795.63
2023-01-23T07:02:53.091Z,100799.78
2023-01-23T07:05:20.524Z,100806.94
2023-01-23T07:07:48.287Z,100815.22
2023-01-23T07:10:15.873Z,100819.44
2023-01-23T07:12:43.255Z,100827.66
2023-01-23T07:15:11.323Z,100815.94
2023-01-23T07:17:39.025Z,100823.06
2023-01-23T07:20:07.038Z,100821.19
2023-01-23T07:22:37.388Z,100824.22
2023-01-23T07:25:05.474Z,100827.50
2023-01-23T07:27:33.186Z,100822.44
2023-01-23T07:30:00.811Z,100829.13
2023-01-23T07:32:28.161Z,100822.03
2023-01-23T07:34:55.816Z,100817.47
2023-01-23T07:37:25.054Z,100827.31
2023-01-23T07:39:52.504Z,100830.13
2023-01-23T07:42:19.899Z,100834.34
2023-01-23T07:44:47.526Z,100827.94
2023-01-23T07:47:14.922Z,100828.25
2023-01-23T07:49:42.266Z,100833.59
2023-01-23T07:52:10.132Z,100831.00
2023-01-23T07:54:37.605Z,100828.12
2023-01-23T07:57:05.015Z,100833.44
2023-01-23T07:59:32.797Z,100839.63
2023-01-23T08:02:00.159Z,100837.31
2023-01-23T08:04:28.026Z,100828.59
2023-01-23T08:06:55.450Z,100836.56
2023-01-23T08:09:22.901Z,100834.00
2023-01-23T08:11:52.391Z,100833.84
2023-01-23T08:14:20.035Z,100823.63
2023-01-23T08:16:50.960Z,100830.97
2023-01-23T08:19:19.549Z,100822.53
2023-01-23T08:21:47.309Z,100826.03
2023-01-23T08:24:14.935Z,100833.78
2023-01-23T08:26:42.957Z,100832.31
2023-01-23T08:29:11.106Z,100835.62
2023-01-23T08:31:39.362Z,100829.41
2023-01-23T08:34:07.047Z,100828.50
2023-01-23T08:36:34.409Z,100833.59
2023-01-23T08:39:01.796Z,100836.81
2023-01-23T08:41:29.511Z,100836.00
2023-01-23T08:44:01.564Z,100829.69
2023-01-23T08:46:29.241Z,100839.22
2023-01-23T08:48:56.559Z,100842.84
2023-01-23T08:51:24.073Z,100845.41
2023-01-23T08:53:53.017Z,100855.78
2023-01-23T08:56:22.248Z,100855.03
2023-01-23T08:58:50.293Z,100855.75
2023-01-23T09:01:20.829Z,100860.28
2023-01-23T09:03:48.551Z,100858.84
2023-01-23T09:06:18.495Z,100850.59
2023-01-23T09:08:46.631Z,100852.41
2023-01-23T09:11:14.312Z,100850.84
2023-01-23T09:13:41.736Z,100852.56
2023-01-23T09:16:09.641Z,100853.38
2023-01-23T09:18:37.152Z,100848.03
2023-01-23T09:21:11.952Z,100864.69
2023-01-23T09:23:40.044Z,100864.00
2023-01-23T09:26:09.396Z,100856.25
2023-01-23T09:28:38.837Z,100862.41
2023-01-23T09:31:07.994Z,100855.09
2023-01-23T09:33:35.966Z,100848.81
2023-01-23T09:36:04.679Z,100847.50
2023-01-23T09:38:34.047Z,100845.81
2023-01-23T09:41:11.898Z,100848.72
2023-01-23T09:43:54.762Z,100848.75
2023-01-23T09:46:26.404Z,100843.56
2023-01-23T09:48:59.469Z,100843.87
2023-01-23T09:52:24.574Z,100854.25
2023-01-23T09:54:59.690Z,100842.28
2023-01-23T09:57:52.927Z,100855.09
2023-01-23T10:00:27.686Z,100844.66
2023-01-23T10:02:56.825Z,100845.56
2023-01-23T10:06:01.343Z,100844.84
2023-01-23T10:08:34.971Z,100842.12
2023-01-23T10:11:07.392Z,100837.09
2023-01-23T10:13:34.931Z,100830.19
2023-01-23T10:16:49.861Z,100841.50
2023-01-23T10:19:31.687Z,100850.06
2023-01-23T10:22:26.064Z,100845.59
2023-01-23T10:24:57.553Z,100834.72
2023-01-23T10:27:32.696Z,100853.72
2023-01-23T10:30:07.782Z,100847.72
2023-01-23T10:32:49.472Z,100842.47
2023-01-23T10:35:25.858Z,100833.00
2023-01-23T10:38:11.203Z,100845.84
2023-01-23T10:40:57.599Z,100836.19
2023-01-23T10:43:29.095Z,100839.88
2023-01-23T10:45:56.847Z,100836.44
2023-01-23T10:48:28.713Z,100833.94
2023-01-23T10:50:56.211Z,100823.47
2023-01-23T10:53:25.213Z,100829.34
2023-01-23T10:55:58.630Z,100828.50
2023-01-23T10:58:37.929Z,100829.19
2023-01-23T11:01:06.951Z,100820.44
2023-01-23T11:03:35.671Z,100825.78
2023-01-23T11:06:08.427Z,100819.56
2023-01-23T11:08:38.696Z,100812.72
2023-01-23T11:11:15.472Z,100818.91
2023-01-23T11:13:44.431Z,100812.00
2023-01-23T11:16:17.139Z,100809.22
2023-01-23T11:18:56.799Z,100818.97
2023-01-23T11:21:29.040Z,100815.50
2023-01-23T11:24:39.866Z,100813.59
2023-01-23T11:27:19.166Z,100809.41
2023-01-23T11:29:46.825Z,100800.69
2023-01-23T11:32:16.229Z,100791.22
2023-01-23T11:34:49.781Z,100796.44
2023-01-23T11:37:17.279Z,100783.41
2023-01-23T11:39:57.836Z,100774.75
2023-01-23T11:42:28.631Z,100776.53
2023-01-23T11:44:59.459Z,100776.66
2023-01-23T11:47:36.577Z,100772.34
2023-01-23T11:50:13.174Z,100779.31
2023-01-23T11:52:47.083Z,100770.66
2023-01-23T11:55:34.714Z,100774.00
2023-01-23T11:58:21.405Z,100762.63
2023-01-23T12:00:54.954Z,100768.87
2023-01-23T12:03:57.069Z,100775.84
2023-01-23T12:06:43.216Z,100775.13
2023-01-23T12:09:18.289Z,100772.31
2023-01-23T12:12:10.249Z,100771.53
2023-01-23T12:15:01.728Z,100761.94
2023-01-23T12:17:33.425Z,100781.12
2023-01-23T12:20:16.509Z,100763.72
2023-01-23T12:22:52.964Z,100768.94
2023-01-23T12:25:29.454Z,100770.62
2023-01-23T12:28:17.289Z,100778.44
2023-01-23T12:30:51.971Z,100773.28
2023-01-23T12:33:48.557Z,100769.78
2023-01-23T12:36:40.354Z,100773.28
2023-01-23T12:39:55.069Z,100769.78
2023-01-23T12:42:31.056Z,100775.78
2023-01-23T12:45:12.311Z,100764.28
2023-01-23T12:47:50.340Z,100767.94
2023-01-23T12:50:21.758Z,100775.00
2023-01-23T12:53:01.650Z,100769.63
2023-01-23T12:55:35.960Z,100771.44
2023-01-23T12:58:09.383Z,100775.87
2023-01-23T13:00:49.391Z,100775.75
2023-01-23T13:03:44.798Z,100781.03
2023-01-23T13:06:51.746Z,100779.34
2023-01-23T13:09:22.182Z,100789.78
2023-01-23T13:11:52.639Z,100789.87
2023-01-23T13:15:06.511Z,100789.84
2023-01-23T13:17:49.679Z,100787.34
2023-01-23T13:20:39.070Z,100797.81
2023-01-23T13:23:19.541Z,100789.81
2023-01-23T13:25:47.517Z,100795.94
2023-01-23T13:28:43.941Z,100781.09
2023-01-23T13:31:26.834Z,100787.34
2023-01-23T13:33:58.781Z,100789.84
2023-01-23T13:36:33.817Z,100794.22
2023-01-23T13:39:04.116Z,100789.97
2023-01-23T13:41:33.834Z,100795.09
2023-01-23T13:44:04.424Z,100801.34
2023-01-23T14:21:52.295Z,100822.00
2023-01-23T14:24:42.616Z,100819.41
2023-01-23T14:27:29.522Z,100815.84
2023-01-23T14:30:13.952Z,100820.97
2023-01-23T14:32:41.983Z,100827.97
2023-01-23T14:35:21.019Z,100820.88
2023-01-23T14:37:49.458Z,100820.03
2023-01-23T14:40:25.896Z,100822.63
2023-01-23T14:43:02.232Z,100820.88
2023-01-23T14:45:33.061Z,100827.03
2023-01-23T14:48:08.494Z,100826.91
2023-01-23T14:50:36.208Z,100830.59
2023-01-23T14:53:07.045Z,100824.31
2023-01-23T14:55:36.827Z,100826.94
2023-01-23T14:58:04.872Z,100828.69
2023-01-23T15:00:32.515Z,100832.19
2023-01-23T15:03:00.086Z,100834.75
2023-01-23T15:05:28.337Z,100837.41
2023-01-23T15:08:03.142Z,100835.53
2023-01-23T15:10:35.741Z,100834.66
2023-01-23T15:13:06.459Z,100831.31
2023-01-23T15:15:34.783Z,100838.38
2023-01-23T15:18:05.757Z,100834.81
2023-01-23T15:20:40.729Z,100843.50
2023-01-23T15:23:33.739Z,100842.56
2023-01-23T15:26:19.600Z,100851.34
2023-01-23T15:29:00.251Z,100859.97
2023-01-23T15:31:40.393Z,100864.31
2023-01-23T15:34:19.622Z,100867.69
2023-01-23T15:37:22.533Z,100872.91
2023-01-23T15:40:02.635Z,100868.56
2023-01-23T15:42:33.450Z,100865.22
2023-01-23T15:45:02.329Z,100873.81
2023-01-23T15:47:31.870Z,100874.84
2023-01-23T15:50:01.661Z,100879.19
2023-01-23T15:52:31.703Z,100883.56
2023-01-23T15:55:01.646Z,100883.56
2023-01-23T15:57:29.315Z,100882.78
2023-01-23T15:59:56.714Z,100890.66
2023-01-23T16:02:31.127Z,100882.84
2023-01-23T16:05:01.665Z,100879.47
2023-01-23T16:07:37.511Z,100884.78
2023-01-23T16:10:25.379Z,100881.09
2023-01-23T16:12:54.682Z,100879.50
2023-01-23T16:15:27.851Z,100878.41
2023-01-23T16:17:56.013Z,100876.69
2023-01-23T16:20:27.621Z,100887.19
2023-01-23T16:22:59.305Z,100876.75
2023-01-23T16:25:44.027Z,100889.78
2023-01-23T16:28:17.560Z,100894.31
2023-01-23T16:30:46.291Z,100896.88
2023-01-23T16:33:13.831Z,100891.59
2023-01-23T16:35:41.774Z,100902.06
2023-01-23T16:38:21.407Z,100905.69
2023-01-23T16:40:51.517Z,100903.12
2023-01-23T16:43:19.836Z,100913.44
2023-01-23T16:45:47.250Z,100909.97
2023-01-23T16:48:25.342Z,100920.25
2023-01-23T16:51:08.071Z,100923.75
2023-01-23T16:53:37.256Z,100924.69
2023-01-23T16:56:06.442Z,100929.84
2023-01-23T16:58:39.264Z,100928.09
2023-01-23T17:01:16.542Z,100933.19
2023-01-23T17:03:44.527Z,100933.31
2023-01-23T17:06:14.080Z,100939.44
2023-01-23T17:08:41.757Z,100936.72
2023-01-23T17:11:17.718Z,100944.63
2023-01-23T17:13:45.625Z,100948.03
2023-01-23T17:16:26.501Z,100945.50
2023-01-23T17:18:57.787Z,100943.75
2023-01-23T17:21:29.796Z,100947.28
2023-01-23T17:23:57.654Z,100946.44
2023-01-23T17:26:25.108Z,100947.31
2023-01-23T17:28:52.637Z,100936.97
2023-01-23T17:31:25.935Z,100931.66
2023-01-23T17:33:55.344Z,100936.97
2023-01-23T17:36:25.097Z,100943.00
2023-01-23T17:38:56.261Z,100950.00
2023-01-23T17:41:23.913Z,100946.56
2023-01-23T17:43:52.624Z,100944.69
2023-01-23T17:46:22.954Z,100946.44
2023-01-23T17:48:50.708Z,100948.19
2023-01-23T17:51:19.907Z,100945.59
2023-01-23T17:53:47.890Z,100947.34
2023-01-23T17:56:16.167Z,100945.63
2023-01-23T17:58:43.971Z,100946.50
2023-01-23T18:01:18.704Z,100951.87
2023-01-23T18:03:46.554Z,100946.56
2023-01-23T18:06:13.988Z,100950.81
2023-01-23T18:08:42.409Z,100956.00
2023-01-23T18:11:18.878Z,100949.94
2023-01-23T18:13:53.599Z,100957.75
2023-01-23T18:16:25.592Z,100956.84
2023-01-23T18:19:01.274Z,100956.63
2023-01-23T18:21:29.157Z,100958.31
2023-01-23T18:23:57.326Z,100957.28
2023-01-23T18:26:48.073Z,100959.22
2023-01-23T18:29:30.221Z,100956.56
2023-01-23T18:32:28.996Z,100959.03
2023-01-23T18:35:24.676Z,100952.94
2023-01-23T18:37:58.121Z,100960.53
2023-01-23T18:41:01.126Z,100960.75
2023-01-23T18:43:35.841Z,100957.97
2023-01-23T18:46:03.753Z,100954.41
2023-01-23T18:48:31.671Z,100958.81
2023-01-23T18:51:08.426Z,100964.91
2023-01-23T18:54:02.241Z,100970.91
2023-01-23T18:56:50.796Z,100974.53
2023-01-23T18:59:45.769Z,100972.63
2023-01-23T19:02:23.701Z,100979.63
2023-01-23T19:05:10.191Z,100975.06
2023-01-23T19:07:38.279Z,100975.84
2023-01-23T19:10:07.863Z,100985.66
2023-01-23T19:12:50.071Z,100976.84
2023-01-23T19:15:50.319Z,100977.44
2023-01-23T19:18:39.428Z,100973.88
2023-01-23T19:21:17.172Z,100982.63
2023-01-23T19:23:55.804Z,100985.13
2023-01-23T19:26:25.376Z,100986.00
2023-01-23T19:28:53.153Z,100996.28
2023-01-23T19:31:28.919Z,100999.47
2023-01-23T19:33:57.487Z,100989.81
2023-01-23T19:36:25.767Z,100995.12
2023-01-23T19:39:00.372Z,101000.31
2023-01-23T19:41:53.398Z,100998.50
2023-01-23T19:44:24.140Z,100998.38
2023-01-23T19:46:52.433Z,101009.34
2023-01-23T19:49:20.102Z,101001.34
2023-01-23T19:51:47.980Z,101009.41
2023-01-23T19:54:16.014Z,101009.13
2023-01-23T19:56:43.494Z,101016.72
2023-01-23T19:59:11.507Z,101012.63
2023-01-23T20:01:43.503Z,101017.78
2023-01-23T20:04:16.905Z,101021.34
2023-01-23T20:06:58.337Z,101014.13
2023-01-23T20:09:26.405Z,101017.69
2023-01-23T20:11:54.181Z,101020.28
2023-01-23T20:14:23.541Z,101025.50
2023-01-23T20:16:51.413Z,101025.25
2023-01-23T20:19:19.659Z,101026.19
2023-01-23T20:21:48.761Z,101021.66
2023-01-23T20:24:16.799Z,101027.63
2023-01-23T20:26:44.707Z,101029.44
2023-01-23T20:29:12.211Z,101035.44
2023-01-23T20:31:42.676Z,101038.94
2023-01-23T20:34:12.838Z,101039.63
2023-01-23T20:36:45.029Z,101044.31
2023-01-23T20:39:13.740Z,101044.63
2023-01-23T20:41:41.132Z,101044.75
2023-01-23T20:44:08.650Z,101050.47
2023-01-23T20:46:36.417Z,101048.75
2023-01-23T20:49:04.028Z,101042.38
2023-01-23T20:51:31.488Z,101047.53
2023-01-23T20:54:00.021Z,101054.56
2023-01-23T20:56:28.089Z,101052.91
2023-01-23T20:59:15.363Z,101053.78
2023-01-23T21:02:03.324Z,101053.78
2023-01-23T21:04:35.305Z,101060.81
2023-01-23T21:07:04.033Z,101069.16
2023-01-23T21:09:31.476Z,101063.84
2023-01-23T21:11:59.324Z,101069.88
2023-01-23T21:14:27.216Z,101074.34
2023-01-23T21:16:54.643Z,101082.22
2023-01-23T21:19:22.232Z,101084.13
2023-01-23T21:21:50.305Z,101080.00
2023-01-23T21:24:17.762Z,101085.97
2023-01-23T21:26:45.135Z,101082.69
2023-01-23T21:29:12.809Z,101088.69
2023-01-23T21:31:40.751Z,101083.00
2023-01-23T21:34:11.487Z,101086.31
2023-01-23T21:36:40.614Z,101091.88
2023-01-23T21:39:10.158Z,101092.62
2023-01-23T21:41:37.887Z,101101.59
2023-01-23T21:44:05.679Z,101103.34
2023-01-23T21:46:33.155Z,101094.56
2023-01-23T21:49:00.816Z,101092.62
2023-01-23T21:51:28.481Z,101095.31
2023-01-23T21:53:55.928Z,101106.59
2023-01-23T21:56:24.134Z,101105.56
2023-01-23T21:58:52.524Z,101105.56
2023-01-23T22:01:33.733Z,101112.44
2023-01-23T22:04:05.678Z,101117.53
2023-01-23T22:06:33.921Z,101121.53
2023-01-23T22:09:02.019Z,101117.09
2023-01-23T22:11:29.532Z,101122.53
2023-01-23T22:13:57.476Z,101116.59
2023-01-23T22:16:35.945Z,101122.53
2023-01-23T22:19:14.684Z,101124.19
2023-01-23T22:21:43.662Z,101126.56
2023-01-23T22:24:11.065Z,101127.84
2023-01-23T22:26:38.463Z,101129.88
2023-01-23T22:29:06.115Z,101127.19
2023-01-23T22:31:33.568Z,101133.41
2023-01-23T22:34:01.001Z,101124.91
2023-01-23T22:36:28.765Z,101131.56
2023-01-23T22:38:56.533Z,101140.38
2023-01-23T22:41:24.064Z,101142.13
2023-01-23T22:43:56.033Z,101138.00
2023-01-23T22:46:23.939Z,101145.69
2023-01-23T22:48:51.818Z,101149.19
2023-01-23T22:51:25.048Z,101147.56
2023-01-23T22:53:53.867Z,101156.22
2023-01-23T22:56:22.001Z,101147.56
2023-01-23T22:58:50.468Z,101152.06
2023-01-23T23:01:19.280Z,101151.34
2023-01-23T23:03:47.016Z,101157.28
2023-01-23T23:06:15.817Z,101152.22
2023-01-23T23:08:47.270Z,101156.41
2023-01-23T23:11:33.231Z,101164.28
2023-01-23T23:14:00.866Z,101166.72
2023-01-23T23:16:30.984Z,101167.66
2023-01-23T23:19:01.615Z,101158.19
2023-01-23T23:21:32.811Z,101165.00
2023-01-23T23:24:02.137Z,101160.62
2023-01-23T23:26:31.366Z,101163.19
2023-01-23T23:28:59.913Z,101168.41
2023-01-23T23:31:27.573Z,101159.97
2023-01-23T23:33:55.750Z,101168.19
2023-01-23T23:36:23.498Z,101163.84
2023-01-23T23:38:50.916Z,101167.34
2023-01-23T23:41:18.939Z,101170.47
2023-01-23T23:43:46.613Z,101175.72
2023-01-23T23:46:15.083Z,101177.28
2023-01-23T23:48:43.842Z,101175.50
2023-01-23T23:51:13.391Z,101184.81
2023-01-23T23:53:41.144Z,101180.69
2023-01-23T23:56:09.979Z,101177.81
2023-01-23T23:58:37.618Z,101183.63
